createdAt,value
2024-01-20T00:00:41.631Z,0.10
2024-01-20T00:03:29.106Z,0.10
2024-01-20T00:05:57.188Z,0.00
2024-01-20T00:08:24.808Z,0.10
2024-01-20T00:10:52.740Z,0.10
2024-01-20T00:13:20.555Z,0.10
2024-01-20T00:15:48.814Z,0.00
2024-01-20T00:18:16.709Z,0.00
2024-01-20T00:20:47.076Z,0.00
2024-01-20T00:23:15.185Z,0.00
2024-01-20T00:25:45.519Z,0.00
2024-01-20T00:28:12.914Z,0.00
2024-01-20T00:30:40.822Z,0.00
2024-01-20T00:33:09.953Z,0.00
2024-01-20T00:35:38.371Z,0.00
2024-01-20T00:38:05.892Z,0.10
2024-01-20T00:40:35.904Z,0.10
2024-01-20T00:43:04.277Z,0.00
2024-01-20T00:45:32.118Z,0.00
2024-01-20T00:47:59.631Z,0.00
2024-01-20T00:50:27.456Z,0.00
2024-01-20T00:52:54.969Z,-0.20
2024-01-20T00:55:22.646Z,-0.30
2024-01-20T00:57:50.057Z,-0.20
2024-01-20T01:00:18.157Z,-0.20
2024-01-20T01:02:45.791Z,-0.20
2024-01-20T01:05:13.667Z,-0.20
2024-01-20T01:07:41.105Z,-0.10
2024-01-20T01:10:09.214Z,-0.10
2024-01-20T01:12:36.919Z,-0.10
2024-01-20T01:15:05.772Z,-0.10
2024-01-20T01:17:34.355Z,-0.20
2024-01-20T01:20:02.576Z,-0.20
2024-01-20T01:22:30.051Z,-0.10
2024-01-20T01:24:57.758Z,-0.10
2024-01-20T01:27:25.786Z,-0.10
2024-01-20T01:29:53.695Z,-0.20
2024-01-20T01:32:21.139Z,-0.20
2024-01-20T01:34:48.880Z,-0.20
2024-01-20T01:37:16.724Z,-0.30
2024-01-20T01:39:44.426Z,-0.20
2024-01-20T01:42:12.121Z,-0.20
2024-01-20T01:44:39.794Z,-0.20
2024-01-20T01:47:07.285Z,-0.20
2024-01-20T01:49:34.986Z,-0.30
2024-01-20T01:52:03.780Z,-0.30
2024-01-20T01:54:31.820Z,-0.30
2024-01-20T01:57:01.495Z,-0.40
2024-01-20T01:59:30.624Z,-0.30
2024-01-20T02:01:58.084Z,-0.40
2024-01-20T02:04:26.595Z,-0.40
2024-01-20T02:06:54.296Z,-0.40
2024-01-20T02:09:22.805Z,-0.40
2024-01-20T02:11:51.074Z,-0.50
2024-01-20T02:14:21.217Z,-0.50
2024-01-20T02:16:48.650Z,-0.40
2024-01-20T02:19:16.495Z,-0.30
2024-01-20T02:21:43.942Z,-0.40
2024-01-20T02:24:13.446Z,-0.40
2024-01-20T02:26:41.673Z,-0.50
2024-01-20T02:29:09.405Z,-0.50
2024-01-20T02:31:39.783Z,-0.40
2024-01-20T02:34:07.749Z,-0.50
2024-01-20T02:36:35.358Z,-0.50
2024-01-20T02:39:03.104Z,-0.50
2024-01-20T02:41:30.512Z,-0.50
2024-01-20T02:43:58.448Z,-0.50
2024-01-20T02:46:25.913Z,-0.50
2024-01-20T02:48:54.102Z,-0.50
2024-01-20T02:51:21.587Z,-0.60
2024-01-20T02:53:49.365Z,-0.60
2024-01-20T02:56:16.798Z,-0.60
2024-01-20T02:58:44.554Z,-0.60
2024-01-20T03:01:11.986Z,-0.60
2024-01-20T03:03:40.035Z,-0.80
2024-01-20T03:06:08.760Z,-0.70
2024-01-20T03:08:36.512Z,-0.70
2024-01-20T03:11:04.259Z,-0.70
2024-01-20T03:13:31.895Z,-0.70
2024-01-20T03:15:59.381Z,-0.70
2024-01-20T03:18:27.067Z,-0.90
2024-01-20T03:20:54.613Z,-0.80
2024-01-20T03:23:22.331Z,-0.70
2024-01-20T03:25:49.702Z,-0.80
2024-01-20T03:28:17.468Z,-0.70
2024-01-20T03:30:44.912Z,-0.80
2024-01-20T03:33:12.726Z,-0.80
2024-01-20T03:35:40.356Z,-0.90
2024-01-20T03:38:08.022Z,-1.00
2024-01-20T03:40:35.454Z,-1.00
2024-01-20T03:43:03.185Z,-1.00
2024-01-20T03:45:34.002Z,-1.10
2024-01-20T03:48:01.839Z,-1.20
2024-01-20T03:50:29.404Z,-1.10
2024-01-20T03:52:57.285Z,-1.20
2024-01-20T03:55:24.644Z,-1.20
2024-01-20T03:57:52.376Z,-1.10
2024-01-20T04:00:19.975Z,-1.10
2024-01-20T04:02:47.648Z,-1.10
2024-01-20T04:05:15.058Z,-1.10
2024-01-20T04:07:43.812Z,-1.10
2024-01-20T04:10:11.241Z,-1.10
2024-01-20T04:12:43.430Z,-1.10
2024-01-20T04:15:11.139Z,-1.20
2024-01-20T04:17:38.888Z,-1.20
2024-01-20T04:20:07.109Z,-1.10
2024-01-20T04:22:34.777Z,-1.10
2024-01-20T04:25:02.506Z,-1.10
2024-01-20T04:27:30.223Z,-1.10
2024-01-20T04:30:00.843Z,-1.00
2024-01-20T04:32:28.880Z,-1.00
2024-01-20T04:34:56.239Z,-1.00
2024-01-20T04:37:23.934Z,-1.00
2024-01-20T04:39:51.350Z,-1.00
2024-01-20T04:42:19.024Z,-1.10
2024-01-20T04:44:46.478Z,-1.00
2024-01-20T04:47:14.159Z,-1.00
2024-01-20T04:49:41.713Z,-1.00
2024-01-20T04:52:09.441Z,-1.00
2024-01-20T04:54:36.925Z,-1.00
2024-01-20T04:57:04.948Z,-1.00
2024-01-20T04:59:32.752Z,-1.00
2024-01-20T05:02:00.368Z,-1.00
2024-01-20T05:04:28.701Z,-0.90
2024-01-20T05:06:56.401Z,-0.90
2024-01-20T05:09:23.797Z,-0.90
2024-01-20T05:11:52.712Z,-0.90
2024-01-20T05:14:20.232Z,-1.00
2024-01-20T05:16:47.934Z,-1.00
2024-01-20T05:19:15.632Z,-0.90
2024-01-20T05:21:43.525Z,-0.90
2024-01-20T05:24:11.528Z,-0.90
2024-01-20T05:26:40.415Z,-0.90
2024-01-20T05:29:07.822Z,-1.00
2024-01-20T05:31:35.555Z,-1.00
2024-01-20T05:34:03.281Z,-0.90
2024-01-20T05:36:31.176Z,-0.90
2024-01-20T05:38:58.683Z,-0.80
2024-01-20T05:41:26.587Z,-0.80
2024-01-20T05:43:54.044Z,-0.90
2024-01-20T05:46:23.009Z,-0.90
2024-01-20T05:48:50.647Z,-0.80
2024-01-20T05:51:18.334Z,-0.90
2024-01-20T05:53:46.894Z,-0.90
2024-01-20T05:56:15.597Z,-0.90
2024-01-20T05:58:43.557Z,-0.90
2024-01-20T06:01:12.253Z,-0.80
2024-01-20T06:03:40.008Z,-0.80
2024-01-20T06:06:09.407Z,-0.90
2024-01-20T06:08:38.541Z,-0.90
2024-01-20T06:11:06.344Z,-0.80
2024-01-20T06:13:35.995Z,-0.90
2024-01-20T06:16:03.968Z,-0.90
2024-01-20T06:18:32.966Z,-0.80
2024-01-20T06:21:01.314Z,-0.90
2024-01-20T06:23:29.795Z,-0.90
2024-01-20T06:25:58.267Z,-0.90
2024-01-20T06:28:25.755Z,-0.80
2024-01-20T06:30:53.989Z,-0.80
2024-01-20T06:33:21.868Z,-0.80
2024-01-20T06:35:51.539Z,-0.80
2024-01-20T06:38:18.916Z,-0.80
2024-01-20T06:40:46.838Z,-0.80
2024-01-20T06:43:14.650Z,-0.80
2024-01-20T06:45:43.729Z,-0.80
2024-01-20T06:48:11.390Z,-0.80
2024-01-20T06:50:44.593Z,-0.90
2024-01-20T06:53:12.338Z,-0.80
2024-01-20T06:55:40.397Z,-0.80
2024-01-20T06:58:07.840Z,-0.70
2024-01-20T07:00:35.642Z,-0.80
2024-01-20T07:03:04.662Z,-0.70
2024-01-20T07:05:32.562Z,-0.70
2024-01-20T07:07:59.947Z,-0.60
2024-01-20T07:10:27.615Z,-0.70
2024-01-20T07:12:55.064Z,-0.70
2024-01-20T07:15:22.841Z,-0.70
2024-01-20T07:17:50.379Z,-0.70
2024-01-20T07:20:18.190Z,-0.70
2024-01-20T07:22:45.642Z,-0.70
2024-01-20T07:25:13.406Z,-0.60
2024-01-20T07:27:41.964Z,-0.70
2024-01-20T07:30:10.773Z,-0.70
2024-01-20T07:32:41.673Z,-0.60
2024-01-20T07:35:10.275Z,-0.60
2024-01-20T07:37:37.810Z,-0.60
2024-01-20T07:40:06.336Z,-0.60
2024-01-20T07:42:35.850Z,-0.50
2024-01-20T07:45:03.952Z,-0.50
2024-01-20T07:47:31.570Z,-0.50
2024-01-20T07:50:00.179Z,-0.50
2024-01-20T07:52:28.957Z,-0.50
2024-01-20T07:54:58.029Z,-0.50
2024-01-20T07:57:25.473Z,-0.60
2024-01-20T07:59:53.242Z,-0.50
2024-01-20T08:02:20.791Z,-0.40
2024-01-20T08:04:48.563Z,-0.30
2024-01-20T08:07:16.009Z,-0.40
2024-01-20T08:09:43.909Z,-0.40
2024-01-20T08:12:11.373Z,-0.40
2024-01-20T08:14:39.119Z,-0.30
2024-01-20T08:17:06.602Z,-0.40
2024-01-20T08:19:34.399Z,-0.40
2024-01-20T08:22:01.839Z,-0.30
2024-01-20T08:24:29.588Z,-0.40
2024-01-20T08:26:58.026Z,-0.40
2024-01-20T08:29:26.087Z,-0.30
2024-01-20T08:31:53.911Z,-0.30
2024-01-20T08:34:21.975Z,-0.20
2024-01-20T08:36:49.750Z,-0.20
2024-01-20T08:39:20.097Z,-0.20
2024-01-20T08:41:48.422Z,-0.10
2024-01-20T08:44:17.000Z,0.00
2024-01-20T08:46:45.804Z,0.00
2024-01-20T08:49:13.586Z,0.00
2024-01-20T08:51:42.314Z,0.10
2024-01-20T08:54:10.436Z,0.10
2024-01-20T08:56:37.940Z,0.10
2024-01-20T08:59:06.040Z,0.10
2024-01-20T09:01:33.691Z,0.10
2024-01-20T09:04:02.736Z,0.10
2024-01-20T09:06:30.402Z,0.20
2024-01-20T09:08:58.477Z,0.10
2024-01-20T09:11:26.111Z,0.10
2024-01-20T09:13:53.897Z,0.00
2024-01-20T09:16:22.332Z,0.10
2024-01-20T09:18:50.398Z,0.10
2024-01-20T09:21:19.078Z,0.20
2024-01-20T09:23:47.315Z,0.20
2024-01-20T09:26:14.890Z,0.00
2024-01-20T09:28:42.979Z,0.00
2024-01-20T09:31:10.653Z,-0.10
2024-01-20T09:33:38.540Z,0.00
2024-01-20T09:36:07.868Z,-0.10
2024-01-20T09:38:35.644Z,-0.20
2024-01-20T09:41:10.716Z,-0.30
2024-01-20T09:43:41.338Z,-0.20
2024-01-20T09:46:10.579Z,-0.30
2024-01-20T09:48:38.855Z,-0.40
2024-01-20T09:51:08.562Z,-0.20
2024-01-20T09:53:37.092Z,-0.30
2024-01-20T09:56:04.923Z,-0.10
2024-01-20T09:58:36.125Z,-0.20
2024-01-20T10:01:05.885Z,-0.30
2024-01-20T10:03:41.233Z,-0.20
2024-01-20T10:06:09.103Z,-0.20
2024-01-20T10:08:38.769Z,-0.30
2024-01-20T10:11:06.782Z,-0.30
2024-01-20T10:13:34.605Z,-0.20
2024-01-20T10:16:02.060Z,-0.20
2024-01-20T10:18:30.325Z,-0.20
2024-01-20T10:21:07.579Z,0.10
2024-01-20T10:23:39.986Z,0.00
2024-01-20T10:26:08.315Z,0.00
2024-01-20T10:28:37.179Z,0.20
2024-01-20T10:31:10.522Z,0.20
2024-01-20T10:33:39.851Z,0.10
2024-01-20T10:36:11.735Z,0.00
2024-01-20T10:38:40.467Z,0.10
2024-01-20T10:41:14.272Z,0.10
2024-01-20T10:43:49.857Z,0.10
2024-01-20T10:46:30.911Z,0.10
2024-01-20T10:49:04.679Z,0.10
2024-01-20T10:51:34.656Z,0.00
2024-01-20T10:54:04.308Z,0.10
2024-01-20T10:56:33.433Z,0.10
2024-01-20T10:59:16.285Z,0.10
2024-01-20T11:01:46.776Z,0.20
2024-01-20T11:04:21.231Z,0.40
2024-01-20T11:06:49.743Z,0.60
2024-01-20T11:09:24.022Z,0.50
2024-01-20T11:12:05.496Z,0.40
2024-01-20T11:14:33.546Z,0.40
2024-01-20T11:17:14.526Z,0.40
2024-01-20T11:19:42.844Z,0.40
2024-01-20T11:22:29.967Z,0.40
2024-01-20T11:24:57.733Z,0.30
2024-01-20T11:27:25.334Z,0.40
2024-01-20T11:30:03.972Z,0.50
2024-01-20T11:32:32.226Z,0.70
2024-01-20T11:35:06.435Z,0.70
2024-01-20T11:37:34.844Z,0.60
2024-01-20T11:40:09.403Z,0.60
2024-01-20T11:42:37.091Z,0.60
2024-01-20T11:45:06.640Z,0.50
2024-01-20T11:47:34.533Z,0.50
2024-01-20T11:50:03.328Z,0.70
2024-01-20T11:52:31.145Z,0.70
2024-01-20T11:54:59.033Z,0.70
2024-01-20T11:57:28.181Z,0.60
2024-01-20T12:00:01.655Z,0.70
2024-01-20T12:02:30.440Z,0.60
2024-01-20T12:05:04.403Z,0.50
2024-01-20T12:07:35.921Z,0.50
2024-01-20T12:10:03.645Z,0.50
2024-01-20T12:12:31.087Z,0.50
2024-01-20T12:14:59.388Z,0.50
2024-01-20T12:17:26.897Z,0.50
2024-01-20T12:19:56.380Z,0.60
2024-01-20T12:22:23.917Z,0.50
2024-01-20T12:24:53.149Z,0.40
2024-01-20T12:27:21.271Z,0.50
2024-01-20T12:29:50.880Z,0.50
2024-01-20T12:32:18.328Z,0.40
2024-01-20T12:34:46.149Z,0.60
2024-01-20T12:37:13.804Z,0.60
2024-01-20T12:39:42.166Z,0.60
2024-01-20T12:42:09.918Z,0.50
2024-01-20T12:44:37.708Z,0.60
2024-01-20T12:47:05.551Z,0.60
2024-01-20T12:49:33.578Z,0.70
2024-01-20T12:52:01.513Z,0.90
2024-01-20T12:54:29.428Z,0.80
2024-01-20T12:56:56.932Z,0.90
2024-01-20T12:59:24.896Z,0.90
2024-01-20T13:01:55.068Z,1.00
2024-01-20T13:04:22.790Z,1.00
2024-01-20T13:06:50.332Z,1.20
2024-01-20T13:09:19.624Z,1.10
2024-01-20T13:11:47.129Z,0.90
2024-01-20T13:14:15.340Z,0.80
2024-01-20T13:16:43.703Z,0.80
2024-01-20T13:19:11.764Z,0.90
2024-01-20T13:21:39.446Z,0.90
2024-01-20T13:24:07.305Z,0.80
2024-01-20T13:26:35.160Z,0.80
2024-01-20T13:29:02.887Z,0.80
2024-01-20T13:31:30.391Z,0.80
2024-01-20T13:33:58.239Z,0.80
2024-01-20T13:36:25.736Z,0.90
2024-01-20T13:38:53.463Z,0.80
2024-01-20T13:41:20.862Z,0.90
2024-01-20T13:43:48.639Z,0.90
2024-01-20T13:46:15.999Z,0.90
2024-01-20T13:48:51.268Z,0.90
2024-01-20T13:51:19.059Z,0.90
2024-01-20T13:53:46.920Z,0.90
2024-01-20T13:56:14.506Z,0.80
2024-01-20T13:58:42.481Z,0.80
2024-01-20T14:01:11.159Z,0.80
2024-01-20T14:03:39.567Z,0.80
2024-01-20T14:06:07.264Z,0.80
2024-01-20T14:08:34.950Z,0.80
2024-01-20T14:11:03.096Z,0.80
2024-01-20T14:13:30.759Z,0.80
2024-01-20T14:15:58.377Z,0.80
2024-01-20T14:18:26.215Z,0.80
2024-01-20T14:20:54.089Z,0.80
2024-01-20T14:23:24.386Z,0.80
2024-01-20T14:25:51.812Z,0.80
2024-01-20T14:28:19.553Z,0.70
2024-01-20T14:30:47.078Z,0.70
2024-01-20T14:33:15.054Z,0.80
2024-01-20T14:35:43.038Z,0.80
2024-01-20T14:38:10.909Z,0.70
2024-01-20T14:40:38.336Z,0.70
2024-01-20T14:43:06.914Z,0.70
2024-01-20T14:45:34.675Z,0.70
2024-01-20T14:48:02.648Z,0.70
2024-01-20T14:50:30.286Z,0.70
2024-01-20T14:52:58.792Z,0.70
2024-01-20T14:55:28.549Z,0.70
2024-01-20T14:57:57.774Z,0.70
2024-01-20T15:00:25.448Z,0.70
2024-01-20T15:02:53.430Z,0.70
2024-01-20T15:05:21.028Z,0.80
2024-01-20T15:07:48.702Z,0.70
2024-01-20T15:10:16.613Z,0.60
2024-01-20T15:12:44.359Z,0.60
2024-01-20T15:15:11.887Z,0.50
2024-01-20T15:17:39.551Z,0.30
2024-01-20T15:20:07.701Z,0.10
2024-01-20T15:22:35.381Z,0.00
2024-01-20T15:25:02.860Z,-0.10
2024-01-20T15:27:30.858Z,-0.10
2024-01-20T15:29:58.411Z,-0.10
2024-01-20T15:32:27.735Z,-0.20
2024-01-20T15:34:56.071Z,-0.20
2024-01-20T15:37:23.744Z,-0.20
2024-01-20T15:39:51.759Z,-0.20
2024-01-20T15:42:19.718Z,-0.30
2024-01-20T15:44:47.101Z,-0.20
2024-01-20T15:47:14.772Z,-0.20
2024-01-20T15:49:45.201Z,-0.20
2024-01-20T15:52:14.126Z,-0.20
2024-01-20T15:54:41.549Z,-0.20
2024-01-20T15:57:10.768Z,-0.20
2024-01-20T15:59:38.303Z,-0.20
2024-01-20T16:02:06.069Z,-0.20
2024-01-20T16:04:35.302Z,-0.20
2024-01-20T16:07:03.548Z,-0.20
2024-01-20T16:09:31.150Z,-0.10
2024-01-20T16:11:59.589Z,-0.20
2024-01-20T16:14:28.305Z,-0.30
2024-01-20T16:16:56.788Z,-0.30
2024-01-20T16:19:24.616Z,-0.30
2024-01-20T16:21:54.746Z,-0.30
2024-01-20T16:24:22.592Z,-0.30
2024-01-20T16:26:50.437Z,-0.20
2024-01-20T16:29:17.849Z,-0.20
2024-01-20T16:31:46.018Z,-0.20
2024-01-20T16:34:13.794Z,-0.30
2024-01-20T16:36:41.566Z,-0.20
2024-01-20T16:39:09.085Z,-0.20
2024-01-20T16:41:37.524Z,-0.20
2024-01-20T16:44:05.619Z,-0.10
2024-01-20T16:46:33.614Z,-0.10
2024-01-20T16:49:01.105Z,-0.10
2024-01-20T16:51:29.058Z,0.00
2024-01-20T16:53:56.749Z,0.00
2024-01-20T16:56:24.715Z,0.10
2024-01-20T16:58:52.196Z,0.10
2024-01-20T17:01:20.039Z,0.20
2024-01-20T17:03:47.861Z,0.20
2024-01-20T17:06:19.848Z,0.20
2024-01-20T17:08:47.567Z,0.20
2024-01-20T17:11:15.262Z,0.20
2024-01-20T17:13:45.071Z,0.20
2024-01-20T17:16:12.754Z,0.30
2024-01-20T17:18:40.411Z,0.20
2024-01-20T17:21:16.708Z,0.30
2024-01-20T17:23:47.904Z,0.30
2024-01-20T17:26:15.963Z,0.30
2024-01-20T17:28:43.495Z,0.30
2024-01-20T17:31:11.483Z,0.20
2024-01-20T17:33:39.403Z,0.30
2024-01-20T17:36:07.861Z,0.30
2024-01-20T17:38:35.815Z,0.30
2024-01-20T17:41:04.275Z,0.30
2024-01-20T17:43:31.794Z,0.30
2024-01-20T17:45:59.409Z,0.40
2024-01-20T17:48:27.059Z,0.30
2024-01-20T17:50:54.948Z,0.40
2024-01-20T17:53:22.312Z,0.40
2024-01-20T17:55:50.808Z,0.40
2024-01-20T17:58:18.233Z,0.40
2024-01-20T18:00:46.591Z,0.40
2024-01-20T18:03:14.111Z,0.40
2024-01-20T18:05:42.079Z,0.40
2024-01-20T18:08:10.011Z,0.40
2024-01-20T18:10:38.326Z,0.40
2024-01-20T18:13:06.917Z,0.40
2024-01-20T18:15:34.779Z,0.40
2024-01-20T18:18:02.596Z,0.50
2024-01-20T18:20:30.274Z,0.40
2024-01-20T18:22:57.745Z,0.50
2024-01-20T18:25:25.517Z,0.50
2024-01-20T18:27:52.951Z,0.50
2024-01-20T18:30:20.803Z,0.50
2024-01-20T18:32:48.482Z,0.50
2024-01-20T18:35:16.471Z,0.60
2024-01-20T18:37:44.175Z,0.60
2024-01-20T18:40:13.690Z,0.60
2024-01-20T18:42:41.260Z,0.60
2024-01-20T18:45:11.322Z,0.60
2024-01-20T18:47:41.475Z,0.60
2024-01-20T18:50:09.972Z,0.60
2024-01-20T18:52:37.501Z,0.70
2024-01-20T18:55:05.531Z,0.70
2024-01-20T18:57:33.256Z,0.70
2024-01-20T19:00:01.609Z,0.70
2024-01-20T19:02:29.246Z,0.70
2024-01-20T19:04:57.051Z,0.70
2024-01-20T19:07:24.776Z,0.70
2024-01-20T19:09:52.674Z,0.70
2024-01-20T19:12:20.102Z,0.70
2024-01-20T19:14:51.808Z,0.70
2024-01-20T19:17:19.574Z,0.70
2024-01-20T19:19:47.473Z,0.70
2024-01-20T19:22:14.941Z,0.70
2024-01-20T19:24:42.659Z,0.80
2024-01-20T19:27:12.423Z,0.70
2024-01-20T19:29:41.237Z,0.80
2024-01-20T19:32:12.597Z,0.80
2024-01-20T19:34:40.909Z,0.70
2024-01-20T19:37:11.506Z,0.80
2024-01-20T19:39:39.488Z,0.80
2024-01-20T19:42:06.938Z,0.80
2024-01-20T19:44:35.749Z,0.80
2024-01-20T19:47:06.938Z,0.80
2024-01-20T19:49:34.994Z,0.80
2024-01-20T19:52:03.454Z,0.70
2024-01-20T19:54:31.393Z,0.70
2024-01-20T19:57:00.848Z,0.70
2024-01-20T19:59:28.813Z,0.80
2024-01-20T20:01:59.610Z,0.80
2024-01-20T20:04:28.131Z,0.80
2024-01-20T20:06:55.777Z,0.90
2024-01-20T20:09:25.006Z,0.80
2024-01-20T20:11:53.605Z,0.80
2024-01-20T20:14:24.480Z,0.80
2024-01-20T20:16:52.647Z,0.90
2024-01-20T20:19:20.613Z,0.90
2024-01-20T20:21:48.112Z,1.00
2024-01-20T20:24:16.079Z,1.00
2024-01-20T20:26:44.260Z,1.00
2024-01-20T20:29:13.227Z,1.00
2024-01-20T20:31:41.244Z,0.90
2024-01-20T20:34:09.336Z,0.90
2024-01-20T20:36:38.773Z,0.90
2024-01-20T20:39:06.974Z,0.90
2024-01-20T20:41:34.649Z,0.90
2024-01-20T20:44:02.620Z,0.90
2024-01-20T20:46:30.227Z,0.90
2024-01-20T20:48:58.077Z,0.80
2024-01-20T20:51:25.577Z,0.90
2024-01-20T20:53:53.295Z,0.90
2024-01-20T20:56:22.062Z,0.90
2024-01-20T20:58:50.032Z,0.90
2024-01-20T21:01:17.634Z,0.90
2024-01-20T21:03:45.600Z,0.90
2024-01-20T21:06:13.275Z,0.90
2024-01-20T21:08:41.325Z,1.00
2024-01-20T21:11:10.201Z,0.90
2024-01-20T21:13:37.901Z,1.00
2024-01-20T21:16:05.603Z,1.00
2024-01-20T21:18:36.075Z,0.90
2024-01-20T21:21:03.566Z,0.90
2024-01-20T21:23:31.671Z,1.00
2024-01-20T21:25:59.317Z,1.00
2024-01-20T21:28:27.076Z,0.90
2024-01-20T21:30:55.182Z,1.00
2024-01-20T21:33:23.058Z,0.90
2024-01-20T21:35:50.767Z,0.90
2024-01-20T21:38:18.566Z,0.90
2024-01-20T21:40:47.944Z,0.90
2024-01-20T21:43:15.897Z,0.90
2024-01-20T21:45:45.513Z,1.00
2024-01-20T21:48:15.050Z,1.00
2024-01-20T21:50:43.902Z,1.00
2024-01-20T21:53:11.493Z,1.00
2024-01-20T21:55:39.439Z,1.00
2024-01-20T21:58:07.481Z,1.00
2024-01-20T22:00:35.369Z,1.00
2024-01-20T22:03:02.970Z,1.00
2024-01-20T22:05:31.090Z,1.10
2024-01-20T22:08:01.816Z,1.00
2024-01-20T22:10:31.443Z,1.10
2024-01-20T22:12:59.299Z,1.10
2024-01-20T22:15:27.574Z,1.10
2024-01-20T22:17:55.093Z,1.10
2024-01-20T22:20:22.806Z,1.10
2024-01-20T22:22:50.287Z,1.10
2024-01-20T22:25:18.153Z,1.10
2024-01-20T22:27:45.950Z,1.10
2024-01-20T22:30:14.092Z,1.10
2024-01-20T22:32:42.381Z,1.10
2024-01-20T22:35:10.270Z,1.10
2024-01-20T22:37:37.948Z,1.10
2024-01-20T22:40:07.543Z,1.20
2024-01-20T22:42:36.174Z,1.10
2024-01-20T22:45:10.718Z,1.10
2024-01-20T22:47:44.714Z,1.10
2024-01-20T22:50:12.829Z,1.20
2024-01-20T22:52:43.660Z,1.20
2024-01-20T22:55:11.501Z,1.20
2024-01-20T22:57:39.097Z,1.20
2024-01-20T23:00:14.093Z,1.20
2024-01-20T23:02:44.932Z,1.30
2024-01-20T23:05:14.096Z,1.30
2024-01-20T23:07:41.492Z,1.40
2024-01-20T23:10:09.575Z,1.30
2024-01-20T23:12:37.505Z,1.30
2024-01-20T23:15:06.713Z,1.30
2024-01-20T23:17:34.454Z,1.30
2024-01-20T23:20:03.314Z,1.30
2024-01-20T23:22:31.611Z,1.30
2024-01-20T23:24:59.301Z,1.30
2024-01-20T23:27:26.693Z,1.30
2024-01-20T23:29:54.396Z,1.40
2024-01-20T23:32:21.892Z,1.30
2024-01-20T23:34:49.574Z,1.30
2024-01-20T23:37:16.910Z,1.30
2024-01-20T23:39:45.055Z,1.30
2024-01-20T23:42:12.644Z,1.40
2024-01-20T23:44:41.159Z,1.40
2024-01-20T23:47:08.562Z,1.40
2024-01-20T23:49:36.402Z,1.30
2024-01-20T23:52:04.084Z,1.30
2024-01-20T23:54:32.043Z,1.40
2024-01-20T23:57:01.966Z,1.50
2024-01-20T23:59:29.757Z,1.50
